sensor_id;sensor_type;location;lat;lon;timestamp;P1;durP1;ratioP1;P2;durP2;ratioP2
18399;SDS011;9326;49.468;11.008;2022-10-31T09:05:19;15.43;;;13.10;;
18399;SDS011;9326;49.468;11.008;2022-10-31T09:07:46;19.23;;;13.47;;
18399;SDS011;9326;49.468;11.008;2022-10-31T09:10:13;15.70;;;13.90;;
18399;SDS011;9326;49.468;11.008;2022-10-31T09:12:40;21.57;;;14.37;;
18399;SDS011;9326;49.468;11.008;2022-10-31T09:15:07;19.17;;;13.60;;
18399;SDS011;9326;49.468;11.008;2022-10-31T09:17:34;15.50;;;12.77;;
18399;SDS011;9326;49.468;11.008;2022-10-31T09:20:01;15.47;;;12.73;;
18399;SDS011;9326;49.468;11.008;2022-10-31T09:22:30;16.20;;;12.83;;
18399;SDS011;9326;49.468;11.008;2022-10-31T09:24:57;14.87;;;13.13;;
18399;SDS011;9326;49.468;11.008;2022-10-31T09:27:24;16.87;;;12.70;;
18399;SDS011;9326;49.468;11.008;2022-10-31T09:29:51;22.43;;;12.90;;
18399;SDS011;9326;49.468;11.008;2022-10-31T09:32:18;13.97;;;12.17;;
18399;SDS011;9326;49.468;11.008;2022-10-31T09:34:45;18.13;;;12.20;;
18399;SDS011;9326;49.468;11.008;2022-10-31T09:37:12;17.43;;;13.30;;
18399;SDS011;9326;49.468;11.008;2022-10-31T09:39:41;18.43;;;13.20;;
18399;SDS011;9326;49.468;11.008;2022-10-31T09:42:23;14.33;;;12.40;;
18399;SDS011;9326;49.468;11.008;2022-10-31T09:44:55;14.83;;;11.63;;
18399;SDS011;9326;49.468;11.008;2022-10-31T09:47:26;14.73;;;11.83;;
18399;SDS011;9326;49.468;11.008;2022-10-31T09:49:59;15.30;;;11.53;;
18399;SDS011;9326;49.468;11.008;2022-10-31T09:52:29;15.53;;;12.33;;
18399;SDS011;9326;49.468;11.008;2022-10-31T09:54:58;17.30;;;12.17;;
18399;SDS011;9326;49.468;11.008;2022-10-31T09:57:27;16.47;;;11.90;;
18399;SDS011;9326;49.468;11.008;2022-10-31T09:59:55;14.70;;;12.13;;
18399;SDS011;9326;49.468;11.008;2022-10-31T10:02:23;21.67;;;13.00;;
18399;SDS011;9326;49.468;11.008;2022-10-31T10:04:53;15.77;;;12.43;;
18399;SDS011;9326;49.468;11.008;2022-10-31T10:07:26;14.40;;;11.90;;
18399;SDS011;9326;49.468;11.008;2022-10-31T10:09:56;15.23;;;12.13;;
18399;SDS011;9326;49.468;11.008;2022-10-31T10:12:28;15.03;;;12.43;;
18399;SDS011;9326;49.468;11.008;2022-10-31T10:15:02;15.27;;;11.77;;
18399;SDS011;9326;49.468;11.008;2022-10-31T10:17:34;14.47;;;11.83;;
18399;SDS011;9326;49.468;11.008;2022-10-31T10:20:08;17.27;;;12.57;;
18399;SDS011;9326;49.468;11.008;2022-10-31T10:22:37;14.40;;;11.73;;
18399;SDS011;9326;49.468;11.008;2022-10-31T10:25:15;15.57;;;11.17;;
18399;SDS011;9326;49.468;11.008;2022-10-31T10:27:52;14.83;;;11.50;;
18399;SDS011;9326;49.468;11.008;2022-10-31T10:30:21;16.53;;;11.77;;
18399;SDS011;9326;49.468;11.008;2022-10-31T10:32:49;17.87;;;11.97;;
18399;SDS011;9326;49.468;11.008;2022-10-31T10:35:22;17.47;;;11.20;;
18399;SDS011;9326;49.468;11.008;2022-10-31T10:37:50;14.97;;;11.67;;
18399;SDS011;9326;49.468;11.008;2022-10-31T10:40:19;17.13;;;11.53;;
18399;SDS011;9326;49.468;11.008;2022-10-31T10:42:53;12.43;;;11.13;;
18399;SDS011;9326;49.468;11.008;2022-10-31T10:45:39;13.73;;;11.20;;
18399;SDS011;9326;49.468;11.008;2022-10-31T10:48:27;12.27;;;10.73;;
18399;SDS011;9326;49.468;11.008;2022-10-31T10:50:57;18.23;;;11.60;;
18399;SDS011;9326;49.468;11.008;2022-10-31T10:53:27;17.00;;;11.87;;
18399;SDS011;9326;49.468;11.008;2022-10-31T10:56:03;16.73;;;12.57;;
18399;SDS011;9326;49.468;11.008;2022-10-31T10:58:34;15.23;;;11.67;;
18399;SDS011;9326;49.468;11.008;2022-10-31T11:01:08;16.20;;;11.67;;
18399;SDS011;9326;49.468;11.008;2022-10-31T11:03:36;15.37;;;11.57;;
18399;SDS011;9326;49.468;11.008;2022-10-31T11:06:04;14.80;;;10.97;;
18399;SDS011;9326;49.468;11.008;2022-10-31T11:08:31;18.60;;;11.33;;
18399;SDS011;9326;49.468;11.008;2022-10-31T11:11:00;18.73;;;11.87;;
18399;SDS011;9326;49.468;11.008;2022-10-31T11:13:28;15.30;;;10.73;;
18399;SDS011;9326;49.468;11.008;2022-10-31T11:15:59;13.40;;;10.83;;
18399;SDS011;9326;49.468;11.008;2022-10-31T11:18:27;15.77;;;11.00;;
18399;SDS011;9326;49.468;11.008;2022-10-31T11:20:56;15.07;;;10.63;;
18399;SDS011;9326;49.468;11.008;2022-10-31T11:23:24;13.10;;;9.77;;
18399;SDS011;9326;49.468;11.008;2022-10-31T11:25:52;15.53;;;10.17;;
18399;SDS011;9326;49.468;11.008;2022-10-31T11:28:20;11.73;;;10.27;;
18399;SDS011;9326;49.468;11.008;2022-10-31T11:30:48;9.87;;;8.60;;
18399;SDS011;9326;49.468;11.008;2022-10-31T11:33:19;14.77;;;10.03;;
18399;SDS011;9326;49.468;11.008;2022-10-31T11:35:47;14.00;;;9.97;;
18399;SDS011;9326;49.468;11.008;2022-10-31T11:38:16;14.40;;;10.43;;
18399;SDS011;9326;49.468;11.008;2022-10-31T11:40:51;12.47;;;10.27;;
18399;SDS011;9326;49.468;11.008;2022-10-31T11:43:18;14.53;;;9.70;;
18399;SDS011;9326;49.468;11.008;2022-10-31T11:45:45;11.93;;;9.63;;
18399;SDS011;9326;49.468;11.008;2022-10-31T11:48:15;15.23;;;10.10;;
18399;SDS011;9326;49.468;11.008;2022-10-31T11:50:47;13.33;;;8.53;;
18399;SDS011;9326;49.468;11.008;2022-10-31T11:53:16;10.93;;;9.30;;
18399;SDS011;9326;49.468;11.008;2022-10-31T11:55:44;12.43;;;9.60;;
18399;SDS011;9326;49.468;11.008;2022-10-31T11:58:21;11.43;;;8.97;;
18399;SDS011;9326;49.468;11.008;2022-10-31T12:00:48;11.30;;;8.83;;
18399;SDS011;9326;49.468;11.008;2022-10-31T12:03:20;10.90;;;9.13;;
18399;SDS011;9326;49.468;11.008;2022-10-31T12:05:53;9.90;;;8.80;;
18399;SDS011;9326;49.468;11.008;2022-10-31T12:08:20;11.73;;;8.80;;
18399;SDS011;9326;49.468;11.008;2022-10-31T12:10:49;11.00;;;9.17;;
18399;SDS011;9326;49.468;11.008;2022-10-31T12:13:26;12.03;;;9.50;;
18399;SDS011;9326;49.468;11.008;2022-10-31T12:15:59;13.57;;;8.90;;
18399;SDS011;9326;49.468;11.008;2022-10-31T12:18:31;10.27;;;8.43;;
18399;SDS011;9326;49.468;11.008;2022-10-31T12:21:06;11.83;;;8.67;;
18399;SDS011;9326;49.468;11.008;2022-10-31T12:23:37;10.97;;;8.30;;
18399;SDS011;9326;49.468;11.008;2022-10-31T12:26:09;9.93;;;8.57;;
18399;SDS011;9326;49.468;11.008;2022-10-31T12:28:44;9.43;;;8.43;;
18399;SDS011;9326;49.468;11.008;2022-10-31T12:31:33;10.80;;;8.83;;
18399;SDS011;9326;49.468;11.008;2022-10-31T12:34:12;10.87;;;8.20;;
18399;SDS011;9326;49.468;11.008;2022-10-31T12:36:46;12.43;;;8.40;;
18399;SDS011;9326;49.468;11.008;2022-10-31T12:39:24;9.90;;;8.90;;
18399;SDS011;9326;49.468;11.008;2022-10-31T12:41:52;10.73;;;8.00;;
18399;SDS011;9326;49.468;11.008;2022-10-31T12:44:27;11.07;;;8.67;;
18399;SDS011;9326;49.468;11.008;2022-10-31T12:47:01;11.83;;;8.60;;
18399;SDS011;9326;49.468;11.008;2022-10-31T12:49:34;11.97;;;9.47;;
18399;SDS011;9326;49.468;11.008;2022-10-31T12:52:09;9.83;;;8.83;;
18399;SDS011;9326;49.468;11.008;2022-10-31T12:54:43;11.03;;;9.23;;
18399;SDS011;9326;49.468;11.008;2022-10-31T12:57:17;14.40;;;9.60;;
18399;SDS011;9326;49.468;11.008;2022-10-31T12:59:50;10.00;;;8.20;;
18399;SDS011;9326;49.468;11.008;2022-10-31T13:02:18;13.90;;;9.03;;
18399;SDS011;9326;49.468;11.008;2022-10-31T13:04:47;10.37;;;8.53;;
18399;SDS011;9326;49.468;11.008;2022-10-31T13:07:17;10.33;;;9.27;;
18399;SDS011;9326;49.468;11.008;2022-10-31T13:09:47;10.87;;;9.50;;
18399;SDS011;9326;49.468;11.008;2022-10-31T13:12:15;11.73;;;9.87;;
18399;SDS011;9326;49.468;11.008;2022-10-31T13:14:44;12.33;;;9.97;;
18399;SDS011;9326;49.468;11.008;2022-10-31T13:17:13;12.33;;;9.77;;
18399;SDS011;9326;49.468;11.008;2022-10-31T13:19:43;12.20;;;10.97;;
18399;SDS011;9326;49.468;11.008;2022-10-31T13:22:12;16.10;;;11.63;;
18399;SDS011;9326;49.468;11.008;2022-10-31T13:24:44;14.20;;;10.97;;
18399;SDS011;9326;49.468;11.008;2022-10-31T13:27:14;13.27;;;11.30;;
18399;SDS011;9326;49.468;11.008;2022-10-31T13:29:43;14.17;;;11.33;;
18399;SDS011;9326;49.468;11.008;2022-10-31T13:32:14;13.43;;;10.83;;
18399;SDS011;9326;49.468;11.008;2022-10-31T13:34:42;13.87;;;11.30;;
18399;SDS011;9326;49.468;11.008;2022-10-31T13:37:14;12.93;;;11.33;;
18399;SDS011;9326;49.468;11.008;2022-10-31T13:39:47;13.63;;;12.17;;
18399;SDS011;9326;49.468;11.008;2022-10-31T13:42:19;13.40;;;12.10;;
18399;SDS011;9326;49.468;11.008;2022-10-31T13:44:47;14.83;;;12.43;;
18399;SDS011;9326;49.468;11.008;2022-10-31T13:47:22;13.40;;;11.97;;
18399;SDS011;9326;49.468;11.008;2022-10-31T13:49:49;16.73;;;12.47;;
18399;SDS011;9326;49.468;11.008;2022-10-31T13:52:21;13.83;;;12.33;;
18399;SDS011;9326;49.468;11.008;2022-10-31T13:54:51;17.17;;;12.57;;
18399;SDS011;9326;49.468;11.008;2022-10-31T13:57:22;15.80;;;12.80;;
18399;SDS011;9326;49.468;11.008;2022-10-31T13:59:51;14.40;;;12.90;;
18399;SDS011;9326;49.468;11.008;2022-10-31T14:02:21;14.20;;;12.47;;
18399;SDS011;9326;49.468;11.008;2022-10-31T14:04:51;16.70;;;13.23;;
18399;SDS011;9326;49.468;11.008;2022-10-31T14:07:19;14.03;;;12.50;;
18399;SDS011;9326;49.468;11.008;2022-10-31T14:09:54;14.07;;;12.03;;
18399;SDS011;9326;49.468;11.008;2022-10-31T14:12:23;13.93;;;12.50;;
18399;SDS011;9326;49.468;11.008;2022-10-31T14:14:56;14.30;;;12.70;;
18399;SDS011;9326;49.468;11.008;2022-10-31T14:17:25;16.00;;;12.57;;
18399;SDS011;9326;49.468;11.008;2022-10-31T14:19:59;14.27;;;12.53;;
18399;SDS011;9326;49.468;11.008;2022-10-31T14:22:31;16.70;;;12.50;;
18399;SDS011;9326;49.468;11.008;2022-10-31T14:24:59;14.90;;;12.67;;
18399;SDS011;9326;49.468;11.008;2022-10-31T14:27:32;13.30;;;12.00;;
18399;SDS011;9326;49.468;11.008;2022-10-31T14:32:42;14.53;;;12.00;;
18399;SDS011;9326;49.468;11.008;2022-10-31T14:35:13;15.37;;;12.10;;
18399;SDS011;9326;49.468;11.008;2022-10-31T14:37:47;13.83;;;12.30;;
18399;SDS011;9326;49.468;11.008;2022-10-31T14:40:23;15.70;;;11.87;;
18399;SDS011;9326;49.468;11.008;2022-10-31T14:42:59;13.27;;;11.87;;
18399;SDS011;9326;49.468;11.008;2022-10-31T14:45:32;14.50;;;12.27;;
18399;SDS011;9326;49.468;11.008;2022-10-31T14:48:10;12.63;;;11.33;;
18399;SDS011;9326;49.468;11.008;2022-10-31T14:50:42;17.53;;;13.10;;
18399;SDS011;9326;49.468;11.008;2022-10-31T14:53:12;14.13;;;11.70;;
18399;SDS011;9326;49.468;11.008;2022-10-31T14:55:43;13.80;;;12.37;;
18399;SDS011;9326;49.468;11.008;2022-10-31T14:58:12;14.23;;;12.93;;
18399;SDS011;9326;49.468;11.008;2022-10-31T15:00:42;16.10;;;12.83;;
18399;SDS011;9326;49.468;11.008;2022-10-31T15:03:11;13.97;;;12.23;;
18399;SDS011;9326;49.468;11.008;2022-10-31T15:05:41;13.00;;;11.70;;
18399;SDS011;9326;49.468;11.008;2022-10-31T15:08:12;14.67;;;11.93;;
18399;SDS011;9326;49.468;11.008;2022-10-31T15:10:39;13.27;;;11.90;;
18399;SDS011;9326;49.468;11.008;2022-10-31T15:13:17;14.13;;;11.30;;
18399;SDS011;9326;49.468;11.008;2022-10-31T15:15:44;18.17;;;12.40;;
18399;SDS011;9326;49.468;11.008;2022-10-31T15:18:14;15.17;;;12.83;;
18399;SDS011;9326;49.468;11.008;2022-10-31T15:20:42;13.53;;;11.93;;
18399;SDS011;9326;49.468;11.008;2022-10-31T15:23:10;14.67;;;12.17;;
18399;SDS011;9326;49.468;11.008;2022-10-31T15:25:38;14.13;;;12.63;;
18399;SDS011;9326;49.468;11.008;2022-10-31T15:28:12;13.20;;;11.80;;
18399;SDS011;9326;49.468;11.008;2022-10-31T15:30:48;16.87;;;13.40;;
18399;SDS011;9326;49.468;11.008;2022-10-31T15:33:19;15.87;;;12.03;;
18399;SDS011;9326;49.468;11.008;2022-10-31T15:35:53;15.40;;;12.67;;
18399;SDS011;9326;49.468;11.008;2022-10-31T15:38:21;13.00;;;11.70;;
18399;SDS011;9326;49.468;11.008;2022-10-31T15:40:51;13.20;;;11.90;;
18399;SDS011;9326;49.468;11.008;2022-10-31T15:43:19;14.43;;;12.63;;
18399;SDS011;9326;49.468;11.008;2022-10-31T15:45:47;13.73;;;12.20;;
18399;SDS011;9326;49.468;11.008;2022-10-31T15:48:15;17.27;;;13.00;;
18399;SDS011;9326;49.468;11.008;2022-10-31T15:50:45;15.27;;;12.23;;
18399;SDS011;9326;49.468;11.008;2022-10-31T15:53:15;14.33;;;12.23;;
18399;SDS011;9326;49.468;11.008;2022-10-31T15:55:45;17.57;;;12.90;;
18399;SDS011;9326;49.468;11.008;2022-10-31T15:58:13;14.03;;;12.53;;
18399;SDS011;9326;49.468;11.008;2022-10-31T16:00:41;15.23;;;12.63;;
18399;SDS011;9326;49.468;11.008;2022-10-31T16:03:22;14.53;;;12.50;;
18399;SDS011;9326;49.468;11.008;2022-10-31T16:05:51;14.13;;;12.63;;
18399;SDS011;9326;49.468;11.008;2022-10-31T16:08:22;15.70;;;13.43;;
18399;SDS011;9326;49.468;11.008;2022-10-31T16:10:50;18.40;;;14.57;;
18399;SDS011;9326;49.468;11.008;2022-10-31T16:13:17;15.07;;;13.47;;
18399;SDS011;9326;49.468;11.008;2022-10-31T16:15:48;14.57;;;12.90;;
18399;SDS011;9326;49.468;11.008;2022-10-31T16:18:16;15.77;;;13.53;;
18399;SDS011;9326;49.468;11.008;2022-10-31T16:20:47;14.40;;;12.87;;
18399;SDS011;9326;49.468;11.008;2022-10-31T16:23:15;15.70;;;12.07;;
18399;SDS011;9326;49.468;11.008;2022-10-31T16:25:43;15.00;;;13.47;;
18399;SDS011;9326;49.468;11.008;2022-10-31T16:28:13;14.47;;;12.40;;
18399;SDS011;9326;49.468;11.008;2022-10-31T16:30:42;14.73;;;13.13;;
18399;SDS011;9326;49.468;11.008;2022-10-31T16:33:21;16.80;;;13.97;;
18399;SDS011;9326;49.468;11.008;2022-10-31T16:35:49;16.97;;;15.17;;
18399;SDS011;9326;49.468;11.008;2022-10-31T16:38:16;16.47;;;14.83;;
18399;SDS011;9326;49.468;11.008;2022-10-31T16:40:43;20.13;;;15.00;;
18399;SDS011;9326;49.468;11.008;2022-10-31T16:43:12;17.37;;;14.73;;
18399;SDS011;9326;49.468;11.008;2022-10-31T16:45:42;17.53;;;14.83;;
18399;SDS011;9326;49.468;11.008;2022-10-31T16:48:10;16.10;;;14.43;;
18399;SDS011;9326;49.468;11.008;2022-10-31T16:50:41;14.70;;;13.20;;
18399;SDS011;9326;49.468;11.008;2022-10-31T16:53:08;15.90;;;14.20;;
18399;SDS011;9326;49.468;11.008;2022-10-31T16:55:40;15.10;;;13.57;;
18399;SDS011;9326;49.468;11.008;2022-10-31T16:58:09;14.37;;;12.97;;
18399;SDS011;9326;49.468;11.008;2022-10-31T17:00:36;14.97;;;13.43;;
18399;SDS011;9326;49.468;11.008;2022-10-31T17:03:04;16.90;;;15.03;;
18399;SDS011;9326;49.468;11.008;2022-10-31T17:05:31;17.00;;;15.30;;
18399;SDS011;9326;49.468;11.008;2022-10-31T17:08:00;17.83;;;15.33;;
18399;SDS011;9326;49.468;11.008;2022-10-31T17:10:27;17.07;;;15.27;;
18399;SDS011;9326;49.468;11.008;2022-10-31T17:12:54;20.93;;;17.37;;
18399;SDS011;9326;49.468;11.008;2022-10-31T17:15:24;20.23;;;17.30;;
18399;SDS011;9326;49.468;11.008;2022-10-31T17:17:52;20.53;;;18.40;;
18399;SDS011;9326;49.468;11.008;2022-10-31T17:20:20;22.97;;;17.23;;
18399;SDS011;9326;49.468;11.008;2022-10-31T17:22:48;19.07;;;16.33;;
18399;SDS011;9326;49.468;11.008;2022-10-31T17:25:17;18.00;;;15.30;;
18399;SDS011;9326;49.468;11.008;2022-10-31T17:27:45;17.33;;;15.33;;
18399;SDS011;9326;49.468;11.008;2022-10-31T17:30:12;17.37;;;14.87;;
18399;SDS011;9326;49.468;11.008;2022-10-31T17:32:39;16.67;;;14.83;;
18399;SDS011;9326;49.468;11.008;2022-10-31T17:35:06;20.23;;;17.90;;
18399;SDS011;9326;49.468;11.008;2022-10-31T17:37:34;23.33;;;19.17;;
18399;SDS011;9326;49.468;11.008;2022-10-31T17:40:02;22.47;;;18.33;;
18399;SDS011;9326;49.468;11.008;2022-10-31T17:42:30;22.10;;;18.07;;
18399;SDS011;9326;49.468;11.008;2022-10-31T17:44:57;25.73;;;19.03;;
18399;SDS011;9326;49.468;11.008;2022-10-31T17:47:24;24.67;;;20.17;;
18399;SDS011;9326;49.468;11.008;2022-10-31T17:49:51;28.40;;;22.07;;
18399;SDS011;9326;49.468;11.008;2022-10-31T17:52:19;27.27;;;22.30;;
18399;SDS011;9326;49.468;11.008;2022-10-31T17:54:46;36.33;;;28.20;;
18399;SDS011;9326;49.468;11.008;2022-10-31T17:57:13;24.70;;;21.67;;
18399;SDS011;9326;49.468;11.008;2022-10-31T17:59:42;24.90;;;22.20;;
18399;SDS011;9326;49.468;11.008;2022-10-31T18:02:09;27.90;;;23.20;;
18399;SDS011;9326;49.468;11.008;2022-10-31T18:04:36;25.97;;;21.57;;
18399;SDS011;9326;49.468;11.008;2022-10-31T18:07:04;26.83;;;21.27;;
18399;SDS011;9326;49.468;11.008;2022-10-31T18:09:32;27.30;;;22.90;;
18399;SDS011;9326;49.468;11.008;2022-10-31T18:11:59;23.47;;;20.60;;
18399;SDS011;9326;49.468;11.008;2022-10-31T18:14:26;23.03;;;20.37;;
18399;SDS011;9326;49.468;11.008;2022-10-31T18:16:54;21.20;;;18.90;;
18399;SDS011;9326;49.468;11.008;2022-10-31T18:19:21;22.07;;;19.77;;
18399;SDS011;9326;49.468;11.008;2022-10-31T18:21:49;24.27;;;21.70;;
18399;SDS011;9326;49.468;11.008;2022-10-31T18:24:16;26.33;;;20.57;;
18399;SDS011;9326;49.468;11.008;2022-10-31T18:26:43;26.97;;;19.63;;
18399;SDS011;9326;49.468;11.008;2022-10-31T18:29:10;25.03;;;22.23;;
18399;SDS011;9326;49.468;11.008;2022-10-31T18:31:37;29.13;;;21.77;;
18399;SDS011;9326;49.468;11.008;2022-10-31T18:34:05;25.13;;;19.97;;
18399;SDS011;9326;49.468;11.008;2022-10-31T18:36:32;21.20;;;17.77;;
18399;SDS011;9326;49.468;11.008;2022-10-31T18:38:59;23.77;;;21.30;;
18399;SDS011;9326;49.468;11.008;2022-10-31T18:41:27;26.53;;;23.83;;
18399;SDS011;9326;49.468;11.008;2022-10-31T18:43:55;30.80;;;26.20;;
18399;SDS011;9326;49.468;11.008;2022-10-31T18:46:23;26.83;;;23.80;;
18399;SDS011;9326;49.468;11.008;2022-10-31T18:48:50;24.47;;;21.83;;
18399;SDS011;9326;49.468;11.008;2022-10-31T18:51:19;19.17;;;17.33;;
18399;SDS011;9326;49.468;11.008;2022-10-31T18:53:49;24.57;;;21.47;;
18399;SDS011;9326;49.468;11.008;2022-10-31T18:56:16;25.40;;;22.67;;
18399;SDS011;9326;49.468;11.008;2022-10-31T18:58:43;26.30;;;23.70;;
18399;SDS011;9326;49.468;11.008;2022-10-31T19:01:11;33.07;;;29.57;;
18399;SDS011;9326;49.468;11.008;2022-10-31T19:03:39;34.17;;;29.40;;
18399;SDS011;9326;49.468;11.008;2022-10-31T19:06:07;37.83;;;33.23;;
18399;SDS011;9326;49.468;11.008;2022-10-31T19:08:36;37.33;;;33.23;;
18399;SDS011;9326;49.468;11.008;2022-10-31T19:11:03;33.97;;;29.10;;
18399;SDS011;9326;49.468;11.008;2022-10-31T19:13:31;32.90;;;29.33;;
18399;SDS011;9326;49.468;11.008;2022-10-31T19:16:02;31.47;;;28.17;;
18399;SDS011;9326;49.468;11.008;2022-10-31T19:18:29;30.60;;;26.57;;
18399;SDS011;9326;49.468;11.008;2022-10-31T19:20:56;32.47;;;27.07;;
18399;SDS011;9326;49.468;11.008;2022-10-31T19:23:23;35.53;;;28.37;;
18399;SDS011;9326;49.468;11.008;2022-10-31T19:25:51;33.30;;;27.73;;
18399;SDS011;9326;49.468;11.008;2022-10-31T19:28:19;30.63;;;27.43;;
18399;SDS011;9326;49.468;11.008;2022-10-31T19:30:51;41.07;;;33.37;;
18399;SDS011;9326;49.468;11.008;2022-10-31T19:33:18;39.87;;;28.37;;
18399;SDS011;9326;49.468;11.008;2022-10-31T19:35:45;35.70;;;28.97;;
18399;SDS011;9326;49.468;11.008;2022-10-31T19:38:12;37.53;;;30.57;;
18399;SDS011;9326;49.468;11.008;2022-10-31T19:40:39;38.90;;;28.57;;
18399;SDS011;9326;49.468;11.008;2022-10-31T19:43:08;40.20;;;28.17;;
18399;SDS011;9326;49.468;11.008;2022-10-31T19:45:35;34.90;;;26.30;;
18399;SDS011;9326;49.468;11.008;2022-10-31T19:48:02;38.70;;;27.80;;
18399;SDS011;9326;49.468;11.008;2022-10-31T19:50:29;36.50;;;27.90;;
18399;SDS011;9326;49.468;11.008;2022-10-31T19:52:56;36.53;;;28.30;;
18399;SDS011;9326;49.468;11.008;2022-10-31T19:55:23;40.60;;;29.63;;
18399;SDS011;9326;49.468;11.008;2022-10-31T19:57:50;36.10;;;30.43;;
18399;SDS011;9326;49.468;11.008;2022-10-31T20:00:18;43.37;;;32.60;;
18399;SDS011;9326;49.468;11.008;2022-10-31T20:02:45;33.73;;;26.80;;
18399;SDS011;9326;49.468;11.008;2022-10-31T20:05:12;37.23;;;28.53;;
18399;SDS011;9326;49.468;11.008;2022-10-31T20:07:39;37.43;;;30.70;;
18399;SDS011;9326;49.468;11.008;2022-10-31T20:10:07;39.17;;;30.60;;
18399;SDS011;9326;49.468;11.008;2022-10-31T20:12:34;39.00;;;30.97;;
18399;SDS011;9326;49.468;11.008;2022-10-31T20:15:01;35.13;;;28.50;;
18399;SDS011;9326;49.468;11.008;2022-10-31T20:17:30;35.63;;;26.17;;
18399;SDS011;9326;49.468;11.008;2022-10-31T20:19:57;34.70;;;26.23;;
18399;SDS011;9326;49.468;11.008;2022-10-31T20:22:24;32.13;;;24.90;;
18399;SDS011;9326;49.468;11.008;2022-10-31T20:24:51;30.80;;;24.13;;
18399;SDS011;9326;49.468;11.008;2022-10-31T20:27:19;28.50;;;22.90;;
18399;SDS011;9326;49.468;11.008;2022-10-31T20:29:46;29.47;;;21.90;;
18399;SDS011;9326;49.468;11.008;2022-10-31T20:32:13;28.73;;;20.40;;
18399;SDS011;9326;49.468;11.008;2022-10-31T20:34:42;28.57;;;21.27;;
18399;SDS011;9326;49.468;11.008;2022-10-31T20:37:09;25.23;;;20.10;;
18399;SDS011;9326;49.468;11.008;2022-10-31T20:39:36;27.07;;;19.80;;
18399;SDS011;9326;49.468;11.008;2022-10-31T20:42:03;25.93;;;19.77;;
18399;SDS011;9326;49.468;11.008;2022-10-31T20:44:31;27.97;;;19.33;;
18399;SDS011;9326;49.468;11.008;2022-10-31T20:46:58;26.07;;;19.97;;
18399;SDS011;9326;49.468;11.008;2022-10-31T20:49:25;24.80;;;19.63;;
18399;SDS011;9326;49.468;11.008;2022-10-31T20:51:53;27.43;;;19.97;;
18399;SDS011;9326;49.468;11.008;2022-10-31T20:54:22;24.23;;;17.40;;
18399;SDS011;9326;49.468;11.008;2022-10-31T20:56:49;28.47;;;19.13;;
18399;SDS011;9326;49.468;11.008;2022-10-31T20:59:16;26.80;;;20.73;;
18399;SDS011;9326;49.468;11.008;2022-10-31T21:01:43;28.83;;;20.97;;
18399;SDS011;9326;49.468;11.008;2022-10-31T21:04:10;27.30;;;21.10;;
18399;SDS011;9326;49.468;11.008;2022-10-31T21:06:37;26.57;;;20.30;;
18399;SDS011;9326;49.468;11.008;2022-10-31T21:09:07;26.37;;;20.70;;
18399;SDS011;9326;49.468;11.008;2022-10-31T21:11:34;25.77;;;20.97;;
18399;SDS011;9326;49.468;11.008;2022-10-31T21:14:01;27.23;;;19.10;;
18399;SDS011;9326;49.468;11.008;2022-10-31T21:16:28;25.80;;;19.33;;
18399;SDS011;9326;49.468;11.008;2022-10-31T21:18:57;27.57;;;20.90;;
18399;SDS011;9326;49.468;11.008;2022-10-31T21:21:25;27.90;;;21.07;;
18399;SDS011;9326;49.468;11.008;2022-10-31T21:23:53;28.27;;;20.90;;
18399;SDS011;9326;49.468;11.008;2022-10-31T21:26:22;30.73;;;22.87;;
18399;SDS011;9326;49.468;11.008;2022-10-31T21:28:53;32.77;;;22.90;;
18399;SDS011;9326;49.468;11.008;2022-10-31T21:31:20;28.30;;;22.03;;
18399;SDS011;9326;49.468;11.008;2022-10-31T21:33:47;28.13;;;21.43;;
18399;SDS011;9326;49.468;11.008;2022-10-31T21:36:15;27.07;;;20.27;;
18399;SDS011;9326;49.468;11.008;2022-10-31T21:38:42;27.27;;;20.07;;
18399;SDS011;9326;49.468;11.008;2022-10-31T21:41:10;27.60;;;19.20;;
18399;SDS011;9326;49.468;11.008;2022-10-31T21:43:40;27.20;;;20.33;;
18399;SDS011;9326;49.468;11.008;2022-10-31T21:46:08;27.30;;;22.20;;
18399;SDS011;9326;49.468;11.008;2022-10-31T21:48:36;29.43;;;19.87;;
18399;SDS011;9326;49.468;11.008;2022-10-31T21:51:06;29.57;;;19.83;;
18399;SDS011;9326;49.468;11.008;2022-10-31T21:53:34;23.90;;;19.63;;
18399;SDS011;9326;49.468;11.008;2022-10-31T21:56:18;24.13;;;19.73;;
18399;SDS011;9326;49.468;11.008;2022-10-31T21:58:47;29.30;;;21.47;;
18399;SDS011;9326;49.468;11.008;2022-10-31T22:01:14;28.63;;;21.20;;
18399;SDS011;9326;49.468;11.008;2022-10-31T22:03:41;28.60;;;20.67;;
18399;SDS011;9326;49.468;11.008;2022-10-31T22:06:09;24.97;;;19.17;;
18399;SDS011;9326;49.468;11.008;2022-10-31T22:08:37;26.93;;;20.33;;
18399;SDS011;9326;49.468;11.008;2022-10-31T22:11:05;26.60;;;20.17;;
18399;SDS011;9326;49.468;11.008;2022-10-31T22:13:32;26.27;;;20.50;;
18399;SDS011;9326;49.468;11.008;2022-10-31T22:16:01;30.63;;;20.10;;
18399;SDS011;9326;49.468;11.008;2022-10-31T22:18:28;27.90;;;19.43;;
18399;SDS011;9326;49.468;11.008;2022-10-31T22:20:59;27.40;;;20.17;;
18399;SDS011;9326;49.468;11.008;2022-10-31T22:23:27;28.97;;;19.67;;
18399;SDS011;9326;49.468;11.008;2022-10-31T22:25:54;28.93;;;20.07;;
18399;SDS011;9326;49.468;11.008;2022-10-31T22:28:21;29.03;;;21.67;;
18399;SDS011;9326;49.468;11.008;2022-10-31T22:30:48;29.77;;;21.63;;
18399;SDS011;9326;49.468;11.008;2022-10-31T22:33:17;27.33;;;20.50;;
18399;SDS011;9326;49.468;11.008;2022-10-31T22:35:44;26.33;;;20.07;;
18399;SDS011;9326;49.468;11.008;2022-10-31T22:38:11;23.07;;;19.10;;
18399;SDS011;9326;49.468;11.008;2022-10-31T22:40:38;25.83;;;19.30;;
18399;SDS011;9326;49.468;11.008;2022-10-31T22:43:05;30.90;;;24.30;;
18399;SDS011;9326;49.468;11.008;2022-10-31T22:45:33;23.90;;;19.57;;
18399;SDS011;9326;49.468;11.008;2022-10-31T22:48:00;29.20;;;19.73;;
18399;SDS011;9326;49.468;11.008;2022-10-31T22:50:28;26.40;;;20.30;;
18399;SDS011;9326;49.468;11.008;2022-10-31T22:52:55;24.67;;;18.17;;
18399;SDS011;9326;49.468;11.008;2022-10-31T22:55:22;23.13;;;17.70;;
18399;SDS011;9326;49.468;11.008;2022-10-31T22:57:49;25.77;;;21.30;;
18399;SDS011;9326;49.468;11.008;2022-10-31T23:00:17;29.33;;;26.13;;
18399;SDS011;9326;49.468;11.008;2022-10-31T23:02:44;30.30;;;22.43;;
18399;SDS011;9326;49.468;11.008;2022-10-31T23:05:11;27.23;;;21.73;;
18399;SDS011;9326;49.468;11.008;2022-10-31T23:07:39;27.23;;;19.23;;
18399;SDS011;9326;49.468;11.008;2022-10-31T23:10:07;25.40;;;19.60;;
18399;SDS011;9326;49.468;11.008;2022-10-31T23:12:34;25.70;;;18.33;;
18399;SDS011;9326;49.468;11.008;2022-10-31T23:15:18;24.33;;;18.83;;
18399;SDS011;9326;49.468;11.008;2022-10-31T23:17:45;25.43;;;19.30;;
18399;SDS011;9326;49.468;11.008;2022-10-31T23:20:13;26.87;;;18.90;;
18399;SDS011;9326;49.468;11.008;2022-10-31T23:22:42;26.80;;;19.83;;
18399;SDS011;9326;49.468;11.008;2022-10-31T23:25:09;24.77;;;18.43;;
18399;SDS011;9326;49.468;11.008;2022-10-31T23:27:36;23.33;;;18.73;;
18399;SDS011;9326;49.468;11.008;2022-10-31T23:30:02;25.83;;;18.97;;
18399;SDS011;9326;49.468;11.008;2022-10-31T23:32:30;24.53;;;19.03;;
18399;SDS011;9326;49.468;11.008;2022-10-31T23:34:59;23.73;;;18.67;;
18399;SDS011;9326;49.468;11.008;2022-10-31T23:37:27;25.53;;;19.03;;
18399;SDS011;9326;49.468;11.008;2022-10-31T23:39:56;24.17;;;18.97;;
18399;SDS011;9326;49.468;11.008;2022-10-31T23:42:23;25.80;;;19.50;;